Time;durP1;ratioP1;P1;durP2;ratioP2;P2;SDS_P1;SDS_P2;PMS_P1;PMS_P2;Temp;Humidity;BMP_temperature;BMP_pressure;BME280_temperature;BME280_humidity;BME280_pressure;Samples;Min_cycle;Max_cycle;Signal;HPM_P1;HPM_P2
2021/11/07 00:09:12;;;;;;;3.92;2.20;;;;;;;;;;6239903;28;20119;-81
2021/11/07 00:12:23;;;;;;;3.35;2.30;;;;;;;;;;6236420;28;20133;-82
2021/11/07 00:15:25;;;;;;;4.90;1.90;;;;;;;;;;6208990;28;20415;-83
2021/11/07 00:18:45;;;;;;;3.55;2.10;;;;;;;;;;6216845;28;20558;-84
2021/11/07 00:25:37;;;;;;;3.13;2.22;;;;;;;;;;6217293;28;20046;-84
2021/11/07 00:35:36;;;;;;;2.53;1.77;;;;;;;;;;6212936;28;20065;-84
2021/11/07 00:38:53;;;;;;;4.07;2.58;;;;;;;;;;6215111;28;20531;-83
2021/11/07 00:41:57;;;;;;;3.92;2.13;;;;;;;;;;6211580;28;20046;-80
2021/11/07 00:45:22;;;;;;;4.10;2.20;;;;;;;;;;6192531;28;20528;-82
2021/11/07 00:48:27;;;;;;;2.78;2.33;;;;;;;;;;6215145;28;20649;-83
2021/11/07 00:57:48;;;;;;;4.10;2.08;;;;;;;;;;6220606;28;20454;-84
2021/11/07 01:01:00;;;;;;;2.97;1.65;;;;;;;;;;6237732;28;20457;-84
2021/11/07 01:04:04;;;;;;;3.22;2.00;;;;;;;;;;6265518;28;20100;-81
2021/11/07 01:07:05;;;;;;;3.75;2.38;;;;;;;;;;6214891;28;20034;-81
2021/11/07 01:10:08;;;;;;;3.90;2.35;;;;;;;;;;6202682;28;20049;-81
2021/11/07 01:13:09;;;;;;;4.47;2.80;;;;;;;;;;6212866;28;20181;-81
2021/11/07 01:16:11;;;;;;;4.10;2.40;;;;;;;;;;6202557;28;20132;-83
2021/11/07 01:19:13;;;;;;;3.65;2.42;;;;;;;;;;6217110;28;20052;-81
2021/11/07 01:22:18;;;;;;;4.93;2.58;;;;;;;;;;6236581;28;20524;-84
2021/11/07 01:25:21;;;;;;;6.00;2.25;;;;;;;;;;6242417;28;20045;-86
2021/11/07 01:28:24;;;;;;;4.03;2.50;;;;;;;;;;6244108;28;20115;-82
2021/11/07 01:31:26;;;;;;;4.65;2.72;;;;;;;;;;6219049;28;20046;-83
2021/11/07 01:37:42;;;;;;;5.88;2.40;;;;;;;;;;6219991;28;20431;-81
2021/11/07 01:40:57;;;;;;;3.50;2.50;;;;;;;;;;6217257;28;20411;-82
2021/11/07 01:43:59;;;;;;;3.85;2.50;;;;;;;;;;6217778;28;20065;-83
2021/11/07 01:47:01;;;;;;;5.55;2.70;;;;;;;;;;6230907;28;20033;-82
2021/11/07 01:50:05;;;;;;;4.60;2.90;;;;;;;;;;6231315;28;20041;-84
2021/11/07 01:53:21;;;;;;;4.93;2.80;;;;;;;;;;6200221;28;20050;-80
2021/11/07 01:56:23;;;;;;;4.95;2.53;;;;;;;;;;6217881;28;20551;-84
2021/11/07 01:59:25;;;;;;;4.20;2.97;;;;;;;;;;6198636;28;20080;-82
2021/11/07 02:02:30;;;;;;;5.32;2.90;;;;;;;;;;6238826;28;20156;-81
2021/11/07 02:05:32;;;;;;;5.43;2.78;;;;;;;;;;6225777;28;20061;-83
2021/11/07 02:08:33;;;;;;;5.82;2.90;;;;;;;;;;6241279;28;20053;-83
2021/11/07 02:11:35;;;;;;;4.75;3.03;;;;;;;;;;6242993;28;20180;-81
2021/11/07 02:14:39;;;;;;;5.32;2.83;;;;;;;;;;6234852;28;20037;-84
2021/11/07 02:17:42;;;;;;;7.13;3.15;;;;;;;;;;6244294;28;20048;-84
2021/11/07 02:20:45;;;;;;;5.20;3.13;;;;;;;;;;6225834;28;20053;-84
2021/11/07 02:23:47;;;;;;;;;;;;;;;;;;6219039;28;21015;-84
2021/11/07 02:26:52;;;;;;;6.03;2.95;;;;;;;;;;6215457;28;20362;-82
2021/11/07 02:29:53;;;;;;;5.07;3.13;;;;;;;;;;6211511;28;20061;-83
2021/11/07 02:32:58;;;;;;;4.50;3.30;;;;;;;;;;6197123;28;20054;-82
2021/11/07 02:36:05;;;;;;;6.03;2.78;;;;;;;;;;6221209;28;20052;-84
2021/11/07 02:39:07;;;;;;;6.38;3.80;;;;;;;;;;6206417;28;20050;-82
2021/11/07 02:42:09;;;;;;;4.82;2.78;;;;;;;;;;6207140;28;20054;-82
2021/11/07 02:45:12;;;;;;;7.57;2.92;;;;;;;;;;6216081;28;20046;-82
2021/11/07 02:48:13;;;;;;;5.35;2.30;;;;;;;;;;6219649;28;20049;-82
2021/11/07 02:51:15;;;;;;;6.13;3.25;;;;;;;;;;6214760;28;20050;-83
2021/11/07 02:54:17;;;;;;;6.80;3.22;;;;;;;;;;6242608;28;20073;-83
2021/11/07 02:57:21;;;;;;;5.82;2.95;;;;;;;;;;6269023;28;20120;-83
2021/11/07 03:00:23;;;;;;;;;;;;;;;;;;6235033;28;20180;-83
2021/11/07 03:03:26;;;;;;;5.43;3.00;;;;;;;;;;6222049;28;19974;-83
2021/11/07 03:06:33;;;;;;;5.30;3.47;;;;;;;;;;6217225;28;20049;-82
2021/11/07 03:09:37;;;;;;;6.30;3.97;;;;;;;;;;6237676;28;20041;-82
2021/11/07 03:12:40;;;;;;;5.85;3.42;;;;;;;;;;6221490;28;20042;-81
2021/11/07 03:15:42;;;;;;;10.85;4.30;;;;;;;;;;6221698;28;20042;-81
2021/11/07 03:18:44;;;;;;;6.30;3.63;;;;;;;;;;6203902;28;20938;-81
2021/11/07 03:21:47;;;;;;;6.72;3.83;;;;;;;;;;6217731;28;20508;-83
2021/11/07 03:24:54;;;;;;;7.55;4.43;;;;;;;;;;6244947;28;20048;-84
2021/11/07 03:27:56;;;;;;;7.82;3.80;;;;;;;;;;6232306;28;20050;-82
2021/11/07 03:31:06;;;;;;;9.68;4.40;;;;;;;;;;6233338;28;20041;-81
2021/11/07 03:34:18;;;;;;;6.85;3.90;;;;;;;;;;6244521;28;20403;-81
2021/11/07 03:37:26;;;;;;;9.02;4.75;;;;;;;;;;6265500;28;20502;-81
2021/11/07 03:40:28;;;;;;;8.10;4.15;;;;;;;;;;6269687;28;20068;-82
2021/11/07 03:43:29;;;;;;;6.30;3.60;;;;;;;;;;6244811;28;20457;-84
2021/11/07 03:46:35;;;;;;;8.57;5.25;;;;;;;;;;6259698;28;20060;-82
2021/11/07 03:49:38;;;;;;;8.68;4.50;;;;;;;;;;6263391;28;20041;-84
2021/11/07 03:52:40;;;;;;;7.93;4.20;;;;;;;;;;6243112;28;20048;-84
2021/11/07 03:55:42;;;;;;;9.55;4.72;;;;;;;;;;6246861;28;20498;-83
2021/11/07 03:58:44;;;;;;;8.43;4.00;;;;;;;;;;6243740;28;20103;-82
2021/11/07 04:01:46;;;;;;;5.20;3.80;;;;;;;;;;6218921;28;20085;-83
2021/11/07 04:04:47;;;;;;;6.95;4.30;;;;;;;;;;6220450;28;20049;-80
2021/11/07 04:07:50;;;;;;;9.02;4.20;;;;;;;;;;6244196;28;20046;-82
2021/11/07 04:10:52;;;;;;;8.75;4.35;;;;;;;;;;6243938;28;20042;-82
2021/11/07 04:13:54;;;;;;;8.75;4.70;;;;;;;;;;6240381;28;20041;-82
2021/11/07 04:16:55;;;;;;;6.63;4.05;;;;;;;;;;6237949;28;20432;-81
2021/11/07 04:19:57;;;;;;;6.55;4.43;;;;;;;;;;6236105;28;20134;-82
2021/11/07 04:22:59;;;;;;;7.97;4.22;;;;;;;;;;6225595;28;20053;-83
2021/11/07 04:26:01;;;;;;;7.82;3.90;;;;;;;;;;6217194;28;20172;-82
2021/11/07 04:29:03;;;;;;;9.35;4.68;;;;;;;;;;6207059;28;20491;-81
2021/11/07 04:32:06;;;;;;;8.25;4.65;;;;;;;;;;6230423;28;20042;-82
2021/11/07 04:35:09;;;;;;;8.57;4.68;;;;;;;;;;6206948;28;20082;-80
2021/11/07 04:38:10;;;;;;;8.55;4.18;;;;;;;;;;6210146;28;20109;-80
2021/11/07 04:41:17;;;;;;;9.50;4.63;;;;;;;;;;6206520;28;20711;-82
2021/11/07 04:44:19;;;;;;;10.02;4.18;;;;;;;;;;6217343;28;20132;-82
2021/11/07 04:47:20;;;;;;;8.15;4.75;;;;;;;;;;6228601;28;20052;-82
2021/11/07 04:50:22;;;;;;;8.90;4.32;;;;;;;;;;6217454;28;20124;-82
2021/11/07 04:53:24;;;;;;;9.77;4.65;;;;;;;;;;6219246;28;20080;-81
2021/11/07 04:56:26;;;;;;;11.23;4.47;;;;;;;;;;6219054;28;20044;-83
2021/11/07 04:59:27;;;;;;;9.65;4.35;;;;;;;;;;6223041;28;20057;-80
2021/11/07 05:02:29;;;;;;;11.15;5.03;;;;;;;;;;6239687;28;20037;-83
2021/11/07 05:05:32;;;;;;;7.55;4.82;;;;;;;;;;6224966;28;20089;-82
2021/11/07 05:08:33;;;;;;;13.43;4.93;;;;;;;;;;6217642;28;20065;-84
2021/11/07 05:11:36;;;;;;;11.45;4.45;;;;;;;;;;6214872;28;20045;-84
2021/11/07 05:14:37;;;;;;;11.13;4.72;;;;;;;;;;6206768;28;20050;-83
2021/11/07 05:17:39;;;;;;;10.35;5.10;;;;;;;;;;6207528;28;20046;-81
2021/11/07 05:20:41;;;;;;;9.88;5.18;;;;;;;;;;6211682;28;20048;-83
2021/11/07 05:23:43;;;;;;;11.05;4.78;;;;;;;;;;6218873;28;20092;-83
2021/11/07 05:26:44;;;;;;;8.68;4.63;;;;;;;;;;6218499;28;20563;-84
2021/11/07 05:29:46;;;;;;;8.15;4.88;;;;;;;;;;6223525;28;20042;-83
2021/11/07 05:32:48;;;;;;;8.55;5.35;;;;;;;;;;6217820;28;20037;-81
2021/11/07 05:35:49;;;;;;;10.27;4.78;;;;;;;;;;6197240;28;20121;-83
2021/11/07 05:38:51;;;;;;;9.45;4.93;;;;;;;;;;6217231;28;20042;-82
2021/11/07 05:41:52;;;;;;;8.77;5.35;;;;;;;;;;6217160;28;20503;-80
2021/11/07 05:44:54;;;;;;;9.48;5.45;;;;;;;;;;6217345;28;20071;-81
2021/11/07 05:47:56;;;;;;;9.60;4.88;;;;;;;;;;6247115;28;20049;-83
2021/11/07 05:50:57;;;;;;;10.30;5.40;;;;;;;;;;6236804;28;20064;-84
2021/11/07 05:53:59;;;;;;;11.10;5.00;;;;;;;;;;6241651;28;20119;-81
2021/11/07 05:57:02;;;;;;;8.75;4.60;;;;;;;;;;6241776;28;20052;-82
2021/11/07 06:00:05;;;;;;;9.70;5.30;;;;;;;;;;6235087;28;20072;-83
2021/11/07 06:03:12;;;;;;;9.57;5.38;;;;;;;;;;6242504;28;20050;-82
2021/11/07 06:06:14;;;;;;;8.90;5.10;;;;;;;;;;6240869;28;20152;-80
2021/11/07 06:09:15;;;;;;;9.82;5.32;;;;;;;;;;6224438;28;20498;-81
2021/11/07 06:12:17;;;;;;;10.70;5.32;;;;;;;;;;6238945;28;20113;-85
2021/11/07 06:15:18;;;;;;;8.93;5.03;;;;;;;;;;6248278;28;20148;-81
2021/11/07 06:18:20;;;;;;;8.85;4.80;;;;;;;;;;6240046;28;20065;-81
2021/11/07 06:21:22;;;;;;;7.93;4.68;;;;;;;;;;6241083;28;20050;-84
2021/11/07 06:24:26;;;;;;;12.38;5.35;;;;;;;;;;6241628;28;20051;-81
2021/11/07 06:27:30;;;;;;;7.82;4.65;;;;;;;;;;6245415;28;20045;-83
2021/11/07 06:30:32;;;;;;;12.70;5.47;;;;;;;;;;6241798;28;20456;-82
2021/11/07 06:33:34;;;;;;;9.95;5.15;;;;;;;;;;6227377;28;20044;-81
2021/11/07 06:36:36;;;;;;;8.75;4.97;;;;;;;;;;6222787;28;20069;-81
2021/11/07 06:39:38;;;;;;;9.82;5.72;;;;;;;;;;6245596;28;20041;-83
2021/11/07 06:42:40;;;;;;;9.60;4.95;;;;;;;;;;6241893;28;20338;-84
2021/11/07 06:45:42;;;;;;;8.63;5.25;;;;;;;;;;6245616;28;20041;-83
2021/11/07 06:48:44;;;;;;;10.60;4.90;;;;;;;;;;6227941;28;20056;-80
2021/11/07 06:51:46;;;;;;;10.85;5.75;;;;;;;;;;6241659;28;20047;-83
2021/11/07 06:54:48;;;;;;;10.77;5.55;;;;;;;;;;6236732;28;20102;-80
2021/11/07 06:57:50;;;;;;;11.02;5.32;;;;;;;;;;6241367;28;20599;-83
2021/11/07 07:01:34;;;;;;;10.23;5.50;;;;;;;;;;6215894;28;20037;-83
2021/11/07 07:04:36;;;;;;;9.77;5.63;;;;;;;;;;6206610;28;20061;-83
2021/11/07 07:07:42;;;;;;;10.45;5.45;;;;;;;;;;6233223;28;20126;-80
2021/11/07 07:10:59;;;;;;;8.07;4.75;;;;;;;;;;6217741;28;20056;-82
2021/11/07 07:17:19;;;;;;;10.60;4.82;;;;;;;;;;6240480;28;20160;-78
2021/11/07 07:24:36;;;;;;;8.68;4.90;;;;;;;;;;6216053;28;20037;-81
2021/11/07 07:33:31;;;;;;;8.43;4.68;;;;;;;;;;6204356;28;20042;-79
2021/11/07 07:36:33;;;;;;;5.80;4.20;;;;;;;;;;6199633;28;20071;-82
2021/11/07 07:39:35;;;;;;;7.07;4.43;;;;;;;;;;6200308;28;20825;-80
2021/11/07 07:42:36;;;;;;;7.05;4.35;;;;;;;;;;6188870;28;20043;-80
2021/11/07 07:45:38;;;;;;;8.25;4.60;;;;;;;;;;6209736;28;20103;-81
2021/11/07 07:48:42;;;;;;;9.15;4.55;;;;;;;;;;6228146;28;20049;-80
2021/11/07 07:51:46;;;;;;;6.35;3.65;;;;;;;;;;6222048;28;20406;-80
2021/11/07 07:54:48;;;;;;;6.22;4.10;;;;;;;;;;6216377;28;20804;-82
2021/11/07 07:57:50;;;;;;;8.25;4.05;;;;;;;;;;6207804;28;20467;-83
2021/11/07 08:00:55;;;;;;;5.93;3.67;;;;;;;;;;6209421;28;20128;-83
2021/11/07 08:03:57;;;;;;;9.38;4.43;;;;;;;;;;6217223;28;20078;-82
2021/11/07 08:06:58;;;;;;;7.93;4.47;;;;;;;;;;6222873;28;20049;-82
2021/11/07 08:10:01;;;;;;;7.03;3.97;;;;;;;;;;6232969;28;20072;-82
2021/11/07 08:13:02;;;;;;;6.03;3.92;;;;;;;;;;6216074;28;20125;-82
2021/11/07 08:16:05;;;;;;;7.18;4.07;;;;;;;;;;6201318;28;20093;-81
2021/11/07 08:19:07;;;;;;;7.65;4.10;;;;;;;;;;6201636;28;20038;-80
2021/11/07 08:22:09;;;;;;;7.88;4.18;;;;;;;;;;6214103;28;20125;-82
2021/11/07 08:25:14;;;;;;;6.13;3.00;;;;;;;;;;6217582;28;20049;-80
2021/11/07 08:28:19;;;;;;;5.75;3.55;;;;;;;;;;6216185;28;20069;-81
2021/11/07 08:31:26;;;;;;;7.00;3.65;;;;;;;;;;6227642;28;20092;-80
2021/11/07 08:34:29;;;;;;;5.13;3.35;;;;;;;;;;6248109;28;20084;-83
2021/11/07 08:37:37;;;;;;;;;;;;;;;;;;6252490;28;20148;-83
2021/11/07 09:00:29;;;;;;;6.55;4.10;;;;;;;;;;6228660;28;20045;-81
2021/11/07 09:03:55;;;;;;;7.20;4.13;;;;;;;;;;6259775;28;20056;-80
2021/11/07 09:10:11;;;;;;;8.30;4.22;;;;;;;;;;6252743;28;20052;-83
2021/11/07 09:13:14;;;;;;;6.15;4.07;;;;;;;;;;6259306;28;20052;-81
2021/11/07 09:16:17;;;;;;;10.18;4.63;;;;;;;;;;6217880;28;20077;-83
2021/11/07 09:19:21;;;;;;;7.63;4.65;;;;;;;;;;6200501;28;20121;-82
2021/11/07 09:25:32;;;;;;;6.68;4.32;;;;;;;;;;6225032;28;21847;-80
2021/11/07 09:28:40;;;;;;;6.93;4.32;;;;;;;;;;6221474;28;20033;-84
2021/11/07 09:31:58;;;;;;;6.50;3.95;;;;;;;;;;6227487;28;20123;-84
2021/11/07 09:35:20;;;;;;;6.45;3.63;;;;;;;;;;6230853;28;20264;-84
2021/11/07 09:38:33;;;;;;;6.97;4.07;;;;;;;;;;6199434;28;20050;-84
2021/11/07 09:41:53;;;;;;;7.47;4.20;;;;;;;;;;6200236;28;20045;-83
2021/11/07 09:45:09;;;;;;;5.63;3.50;;;;;;;;;;6197442;28;20508;-80
2021/11/07 09:48:16;;;;;;;4.18;2.90;;;;;;;;;;6197705;28;20045;-82
2021/11/07 09:51:20;;;;;;;4.57;3.13;;;;;;;;;;6209134;28;20053;-82
2021/11/07 09:54:22;;;;;;;5.45;3.80;;;;;;;;;;6215588;28;20045;-82
2021/11/07 09:57:28;;;;;;;3.30;2.47;;;;;;;;;;6215123;28;20109;-84
2021/11/07 10:00:45;;;;;;;4.97;3.00;;;;;;;;;;6203839;28;20038;-82
2021/11/07 10:03:47;;;;;;;3.20;2.38;;;;;;;;;;6236540;28;20042;-84
2021/11/07 10:06:52;;;;;;;3.15;2.30;;;;;;;;;;6233049;28;20048;-83
2021/11/07 10:09:59;;;;;;;2.75;1.58;;;;;;;;;;6221587;28;20745;-84
2021/11/07 10:13:18;;;;;;;1.85;1.52;;;;;;;;;;6234868;28;20494;-82
2021/11/07 10:16:43;;;;;;;2.67;1.65;;;;;;;;;;6234259;28;20180;-83
2021/11/07 10:20:27;;;;;;;2.13;1.58;;;;;;;;;;6231809;28;20503;-82
2021/11/07 10:23:35;;;;;;;4.05;2.53;;;;;;;;;;6223020;28;20584;-84
2021/11/07 10:26:39;;;;;;;3.67;2.15;;;;;;;;;;6190204;28;20038;-81
2021/11/07 10:29:51;;;;;;;2.35;1.60;;;;;;;;;;6190886;28;20522;-82
2021/11/07 10:52:25;;;;;;;4.03;2.30;;;;;;;;;;6243245;28;20119;-83
2021/11/07 10:55:33;;;;;;;3.15;2.15;;;;;;;;;;6226436;28;20045;-82
2021/11/07 10:58:41;;;;;;;4.65;2.25;;;;;;;;;;6233629;28;20047;-82
2021/11/07 11:01:44;;;;;;;3.15;2.50;;;;;;;;;;6241213;28;20049;-84
2021/11/07 11:05:03;;;;;;;;;;;;;;;;;;6232499;28;20099;-81
2021/11/07 11:08:13;;;;;;;5.60;2.63;;;;;;;;;;6206220;28;19921;-82
2021/11/07 11:11:26;;;;;;;4.20;3.40;;;;;;;;;;6213549;28;20049;-84
2021/11/07 11:14:37;;;;;;;4.97;3.22;;;;;;;;;;6207461;28;20683;-83
2021/11/07 11:18:16;;;;;;;6.93;4.00;;;;;;;;;;6216954;28;20115;-81
2021/11/07 11:21:31;;;;;;;5.15;3.47;;;;;;;;;;6228912;28;20128;-84
2021/11/07 11:31:25;;;;;;;6.78;3.65;;;;;;;;;;6222449;28;20184;-83
2021/11/07 11:34:31;;;;;;;9.13;2.92;;;;;;;;;;6199434;28;20106;-81
2021/11/07 11:38:00;;;;;;;5.63;2.83;;;;;;;;;;6214740;28;20045;-80
2021/11/07 11:41:11;;;;;;;8.70;2.30;;;;;;;;;;6216716;28;20359;-83
2021/11/07 11:44:15;;;;;;;8.98;3.10;;;;;;;;;;6200876;28;20808;-81
2021/11/07 11:47:40;;;;;;;7.70;2.58;;;;;;;;;;6201641;28;20061;-80
2021/11/07 11:57:50;;;;;;;6.90;2.83;;;;;;;;;;6196844;28;20504;-84
2021/11/07 12:04:14;;;;;;;6.38;2.50;;;;;;;;;;6211134;28;20124;-81
2021/11/07 12:07:23;;;;;;;;;;;;;;;;;;6195092;28;20081;-81
2021/11/07 12:11:12;;;;;;;9.45;3.17;;;;;;;;;;6180984;28;19925;-85
2021/11/07 12:14:11;;;;;;;7.13;3.00;;;;;;;;;;6199712;28;20052;-83
2021/11/07 12:17:28;;;;;;;11.93;2.70;;;;;;;;;;6204067;28;20046;-82
2021/11/07 12:20:36;;;;;;;8.73;2.67;;;;;;;;;;6205195;28;20143;-83
2021/11/07 12:23:38;;;;;;;6.78;2.38;;;;;;;;;;6195375;28;20046;-84
2021/11/07 12:26:40;;;;;;;7.00;2.70;;;;;;;;;;6189664;28;20056;-84
2021/11/07 12:29:43;;;;;;;6.65;2.47;;;;;;;;;;6199383;28;20046;-81
2021/11/07 12:32:48;;;;;;;5.30;2.47;;;;;;;;;;6236722;28;20557;-82
2021/11/07 12:36:10;;;;;;;8.60;2.97;;;;;;;;;;6213734;28;20076;-82
2021/11/07 12:43:04;;;;;;;10.52;2.90;;;;;;;;;;6213252;28;20176;-80
2021/11/07 12:46:23;;;;;;;6.53;2.63;;;;;;;;;;6216387;28;20046;-82
2021/11/07 12:49:28;;;;;;;7.47;2.58;;;;;;;;;;6230199;28;20052;-83
2021/11/07 12:52:49;;;;;;;6.30;3.13;;;;;;;;;;6224668;28;20057;-83
2021/11/07 12:55:58;;;;;;;7.95;3.03;;;;;;;;;;6187987;28;20070;-83
2021/11/07 12:59:00;;;;;;;7.95;3.13;;;;;;;;;;6209202;28;20140;-83
2021/11/07 13:02:24;;;;;;;7.07;2.83;;;;;;;;;;6235481;28;20057;-82
2021/11/07 13:05:31;;;;;;;6.90;2.80;;;;;;;;;;6219289;28;20049;-82
2021/11/07 13:08:34;;;;;;;8.80;2.65;;;;;;;;;;6227131;28;20691;-81
2021/11/07 13:11:38;;;;;;;11.40;2.88;;;;;;;;;;6235341;28;20672;-82
2021/11/07 13:15:09;;;;;;;6.63;2.55;;;;;;;;;;6217329;28;20096;-80
2021/11/07 13:28:22;;;;;;;8.82;2.08;;;;;;;;;;6208906;28;20137;-81
2021/11/07 13:31:38;;;;;;;6.10;1.80;;;;;;;;;;6187827;28;20659;-79
2021/11/07 13:34:54;;;;;;;5.90;2.00;;;;;;;;;;6182966;28;20169;-81
2021/11/07 13:38:03;;;;;;;9.23;1.80;;;;;;;;;;6217415;28;20124;-82
2021/11/07 13:41:21;;;;;;;5.57;1.60;;;;;;;;;;6211105;28;20117;-81
2021/11/07 13:44:26;;;;;;;11.35;2.30;;;;;;;;;;6206689;28;20072;-80
2021/11/07 13:47:33;;;;;;;6.75;1.50;;;;;;;;;;6209522;28;20518;-82
2021/11/07 13:50:35;;;;;;;4.18;1.70;;;;;;;;;;6197820;28;20604;-81
2021/11/07 13:53:40;;;;;;;12.55;2.63;;;;;;;;;;6206131;28;20423;-80
2021/11/07 13:56:45;;;;;;;5.50;1.90;;;;;;;;;;6184474;28;20077;-81
2021/11/07 13:59:46;;;;;;;6.10;1.70;;;;;;;;;;6191675;28;20060;-80
2021/11/07 14:02:50;;;;;;;8.50;1.90;;;;;;;;;;6198146;28;20102;-80
2021/11/07 14:06:01;;;;;;;5.10;1.73;;;;;;;;;;6210109;28;20156;-79
2021/11/07 14:09:05;;;;;;;6.57;2.17;;;;;;;;;;6225875;28;20781;-79
2021/11/07 14:12:09;;;;;;;6.07;2.45;;;;;;;;;;6232307;28;20798;-80
2021/11/07 14:15:15;;;;;;;5.28;2.17;;;;;;;;;;6207762;28;20060;-80
2021/11/07 14:18:22;;;;;;;6.75;2.40;;;;;;;;;;6208525;28;20046;-81
2021/11/07 14:21:30;;;;;;;10.68;2.20;;;;;;;;;;6216496;28;20063;-81
2021/11/07 14:24:36;;;;;;;9.68;2.67;;;;;;;;;;6215289;28;20049;-81
2021/11/07 14:27:48;;;;;;;9.10;2.40;;;;;;;;;;6206060;28;20035;-82
2021/11/07 14:30:51;;;;;;;9.50;3.08;;;;;;;;;;6221867;28;20041;-80
2021/11/07 14:34:02;;;;;;;13.88;3.55;;;;;;;;;;6225011;28;20048;-80
2021/11/07 14:40:19;;;;;;;9.32;3.20;;;;;;;;;;6188528;28;20189;-82
2021/11/07 14:46:35;;;;;;;8.23;2.80;;;;;;;;;;6232675;28;20045;-81
2021/11/07 14:49:53;;;;;;;8.35;2.50;;;;;;;;;;6217490;28;20060;-84
2021/11/07 14:56:27;;;;;;;6.07;2.60;;;;;;;;;;6225438;28;20530;-85
2021/11/07 14:59:41;;;;;;;7.15;3.08;;;;;;;;;;6221538;28;20125;-83
2021/11/07 15:05:57;;;;;;;9.02;3.20;;;;;;;;;;6229749;28;20572;-82
2021/11/07 15:09:06;;;;;;;11.85;3.20;;;;;;;;;;6244310;28;20042;-83
2021/11/07 15:15:44;;;;;;;11.57;3.07;;;;;;;;;;6230970;28;20044;-86
2021/11/07 15:21:57;;;;;;;9.02;3.15;;;;;;;;;;6204951;28;20814;-82
2021/11/07 15:25:05;;;;;;;9.77;3.55;;;;;;;;;;6207852;28;20050;-84
2021/11/07 15:28:13;;;;;;;9.70;4.00;;;;;;;;;;6193771;28;20809;-83
2021/11/07 15:31:16;;;;;;;5.47;2.85;;;;;;;;;;6213314;28;20390;-80
2021/11/07 15:34:32;;;;;;;12.02;3.10;;;;;;;;;;6215784;28;20050;-82
2021/11/07 15:37:34;;;;;;;6.38;2.45;;;;;;;;;;6224064;28;20069;-82
2021/11/07 15:40:38;;;;;;;9.23;3.00;;;;;;;;;;6225173;28;20136;-80
2021/11/07 15:43:47;;;;;;;14.70;3.88;;;;;;;;;;6228514;28;20045;-80
2021/11/07 15:46:51;;;;;;;13.45;2.90;;;;;;;;;;6233212;28;20046;-84
2021/11/07 15:50:01;;;;;;;7.30;2.58;;;;;;;;;;6200344;28;20049;-81
2021/11/07 15:53:18;;;;;;;10.20;2.45;;;;;;;;;;6219811;28;20049;-81
2021/11/07 15:59:48;;;;;;;6.55;2.55;;;;;;;;;;6215873;28;20045;-82
2021/11/07 16:03:06;;;;;;;10.43;2.72;;;;;;;;;;6229930;28;20045;-82
2021/11/07 16:13:04;;;;;;;8.82;3.35;;;;;;;;;;6192570;28;20495;-84
2021/11/07 16:19:34;;;;;;;7.53;2.50;;;;;;;;;;6256189;28;20157;-80
2021/11/07 16:22:39;;;;;;;6.78;2.10;;;;;;;;;;6238530;28;20100;-81
2021/11/07 16:25:46;;;;;;;9.30;2.60;;;;;;;;;;6236265;28;20053;-83
2021/11/07 16:28:48;;;;;;;15.23;3.92;;;;;;;;;;6230765;28;20107;-85
2021/11/07 16:32:10;;;;;;;8.45;2.80;;;;;;;;;;6238565;28;20049;-84
2021/11/07 16:35:18;;;;;;;7.63;2.40;;;;;;;;;;6217602;28;20056;-84
2021/11/07 16:38:32;;;;;;;8.13;2.45;;;;;;;;;;6239564;28;20037;-83
2021/11/07 16:45:06;;;;;;;7.78;2.83;;;;;;;;;;6227638;28;20045;-83
2021/11/07 16:48:11;;;;;;;11.77;2.75;;;;;;;;;;6219380;28;20049;-84
2021/11/07 16:51:23;;;;;;;11.43;2.80;;;;;;;;;;6209332;28;20048;-83
2021/11/07 16:54:34;;;;;;;9.82;2.92;;;;;;;;;;6241532;28;20057;-84
2021/11/07 16:57:37;;;;;;;7.22;2.45;;;;;;;;;;6241658;28;20041;-81
2021/11/07 17:00:43;;;;;;;8.52;2.70;;;;;;;;;;6224915;28;20041;-82
2021/11/07 17:03:49;;;;;;;17.25;7.03;;;;;;;;;;6233693;28;20105;-79
2021/11/07 17:06:56;;;;;;;8.60;3.00;;;;;;;;;;6241686;28;20056;-82
2021/11/07 17:10:00;;;;;;;9.75;3.67;;;;;;;;;;6224195;28;20041;-82
2021/11/07 17:13:04;;;;;;;15.68;3.60;;;;;;;;;;6241370;28;20029;-81
2021/11/07 17:16:14;;;;;;;8.88;2.92;;;;;;;;;;6240061;28;20055;-84
2021/11/07 17:19:20;;;;;;;10.98;2.95;;;;;;;;;;6229201;28;20046;-79
2021/11/07 17:25:57;;;;;;;8.40;2.63;;;;;;;;;;6193157;28;20133;-82
2021/11/07 17:29:04;;;;;;;7.80;2.35;;;;;;;;;;6211988;28;20124;-84
2021/11/07 17:32:15;;;;;;;6.00;2.45;;;;;;;;;;6224525;28;20049;-81
2021/11/07 17:48:51;;;;;;;7.93;2.10;;;;;;;;;;6258041;28;20061;-81
2021/11/07 17:55:05;;;;;;;14.30;2.95;;;;;;;;;;6239476;28;20077;-79
2021/11/07 17:58:07;;;;;;;9.05;2.33;;;;;;;;;;6244637;28;20449;-83
2021/11/07 18:01:12;;;;;;;6.78;1.90;;;;;;;;;;6246663;28;20041;-82
2021/11/07 18:04:15;;;;;;;12.20;3.25;;;;;;;;;;6242732;28;20053;-81
2021/11/07 18:10:21;;;;;;;11.90;2.58;;;;;;;;;;6267762;28;20064;-82
2021/11/07 18:13:32;;;;;;;13.50;3.22;;;;;;;;;;6252011;28;20095;-82
2021/11/07 18:16:34;;;;;;;15.07;3.25;;;;;;;;;;6233989;28;20057;-81
2021/11/07 18:19:36;;;;;;;15.00;2.80;;;;;;;;;;6248029;28;20052;-83
2021/11/07 18:22:40;;;;;;;15.18;3.53;;;;;;;;;;6254301;28;20052;-83
2021/11/07 18:25:52;;;;;;;9.40;3.00;;;;;;;;;;6241981;28;20041;-81
2021/11/07 18:28:54;;;;;;;13.57;2.83;;;;;;;;;;6236962;28;20630;-82
2021/11/07 18:31:56;;;;;;;10.63;2.80;;;;;;;;;;6239532;28;20052;-79
2021/11/07 18:34:57;;;;;;;15.85;3.25;;;;;;;;;;6240043;28;20264;-81
2021/11/07 18:38:00;;;;;;;14.48;3.05;;;;;;;;;;6251317;28;20071;-81
2021/11/07 18:41:03;;;;;;;11.60;2.92;;;;;;;;;;6238674;28;20095;-82
2021/11/07 18:44:05;;;;;;;;;;;;;;;;;;6231698;28;20034;-82
2021/11/07 18:47:08;;;;;;;6.88;2.30;;;;;;;;;;6238515;28;19931;-80
2021/11/07 18:50:10;;;;;;;8.77;3.25;;;;;;;;;;6220501;28;20499;-81
2021/11/07 18:53:12;;;;;;;10.57;2.55;;;;;;;;;;6238745;28;20052;-80
2021/11/07 18:56:14;;;;;;;11.07;2.65;;;;;;;;;;6227225;28;20056;-81
2021/11/07 18:59:17;;;;;;;10.70;2.65;;;;;;;;;;6208074;28;20060;-82
2021/11/07 19:02:19;;;;;;;14.17;3.17;;;;;;;;;;6231374;28;20550;-81
2021/11/07 19:05:21;;;;;;;7.30;2.80;;;;;;;;;;6211675;28;20111;-81
2021/11/07 19:08:24;;;;;;;12.05;3.25;;;;;;;;;;6208602;28;20042;-80
2021/11/07 19:11:27;;;;;;;20.58;3.78;;;;;;;;;;6207527;28;20054;-79
2021/11/07 19:14:29;;;;;;;8.65;2.85;;;;;;;;;;6205290;28;20148;-83
2021/11/07 19:17:30;;;;;;;10.00;2.75;;;;;;;;;;6210134;28;20044;-79
2021/11/07 19:20:33;;;;;;;12.40;3.22;;;;;;;;;;6204157;28;20385;-80
2021/11/07 19:23:35;;;;;;;12.93;2.80;;;;;;;;;;6211997;28;20042;-81
2021/11/07 19:26:37;;;;;;;14.80;3.17;;;;;;;;;;6209611;28;20107;-80
2021/11/07 19:29:41;;;;;;;10.38;3.15;;;;;;;;;;6204757;28;20060;-77
2021/11/07 19:32:43;;;;;;;15.00;3.05;;;;;;;;;;6215813;28;20752;-81
2021/11/07 19:35:46;;;;;;;16.92;3.35;;;;;;;;;;6216357;28;20033;-82
2021/11/07 19:38:47;;;;;;;9.15;2.97;;;;;;;;;;6230217;28;20045;-81
2021/11/07 19:41:49;;;;;;;16.42;3.53;;;;;;;;;;6236600;28;20056;-81
2021/11/07 19:44:54;;;;;;;17.33;3.70;;;;;;;;;;6191832;28;20205;-82
2021/11/07 19:48:01;;;;;;;11.90;3.40;;;;;;;;;;6215412;28;20096;-80
2021/11/07 19:51:06;;;;;;;9.80;2.90;;;;;;;;;;6221968;28;20875;-80
2021/11/07 19:54:09;;;;;;;12.48;3.35;;;;;;;;;;6216459;28;20781;-81
2021/11/07 19:57:11;;;;;;;12.55;3.75;;;;;;;;;;6216100;28;20573;-83
2021/11/07 20:03:38;;;;;;;14.15;4.43;;;;;;;;;;6212459;28;20046;-82
2021/11/07 20:09:48;;;;;;;11.85;3.45;;;;;;;;;;6214499;28;20482;-81
2021/11/07 20:12:51;;;;;;;11.32;3.50;;;;;;;;;;6211974;28;20048;-82
2021/11/07 20:15:54;;;;;;;10.32;2.97;;;;;;;;;;6188263;28;20121;-80
2021/11/07 20:18:55;;;;;;;11.82;3.13;;;;;;;;;;6193327;28;20397;-83
2021/11/07 20:21:58;;;;;;;12.30;3.28;;;;;;;;;;6196131;28;20799;-82
2021/11/07 20:25:00;;;;;;;7.57;2.75;;;;;;;;;;6209573;28;20085;-82
2021/11/07 20:28:11;;;;;;;8.85;3.03;;;;;;;;;;6208733;28;20097;-84
2021/11/07 20:31:13;;;;;;;11.10;3.10;;;;;;;;;;6208334;28;20073;-80
2021/11/07 20:34:19;;;;;;;13.77;3.28;;;;;;;;;;6233053;28;20061;-82
2021/11/07 20:37:24;;;;;;;7.97;3.10;;;;;;;;;;6213305;28;20052;-81
2021/11/07 20:40:26;;;;;;;8.38;3.00;;;;;;;;;;6219655;28;20042;-81
2021/11/07 20:43:33;;;;;;;11.20;2.78;;;;;;;;;;6216433;28;20062;-82
2021/11/07 20:47:09;;;;;;;9.48;2.95;;;;;;;;;;6226845;28;20188;-80
2021/11/07 20:53:34;;;;;;;15.00;3.00;;;;;;;;;;6221524;28;20054;-84
2021/11/07 20:56:52;;;;;;;12.52;2.92;;;;;;;;;;6199416;28;20042;-82
2021/11/07 21:00:16;;;;;;;10.05;3.55;;;;;;;;;;6211399;28;20563;-84
2021/11/07 21:06:54;;;;;;;9.32;3.83;;;;;;;;;;6192995;28;20042;-82
2021/11/07 21:13:03;;;;;;;15.30;3.63;;;;;;;;;;6198294;28;20049;-82
2021/11/07 21:28:54;;;;;;;10.88;3.67;;;;;;;;;;6195127;28;20050;-82
2021/11/07 21:31:55;;;;;;;14.57;3.70;;;;;;;;;;6200899;28;20061;-83
2021/11/07 21:35:02;;;;;;;15.68;3.83;;;;;;;;;;6193876;28;20052;-80
2021/11/07 21:38:09;;;;;;;20.10;4.63;;;;;;;;;;6205299;28;20050;-84
2021/11/07 21:41:29;;;;;;;15.02;4.05;;;;;;;;;;6216110;28;20109;-82
2021/11/07 21:44:33;;;;;;;15.25;3.95;;;;;;;;;;6196711;28;20046;-82
2021/11/07 21:47:35;;;;;;;12.55;3.88;;;;;;;;;;6198420;28;20432;-82
2021/11/07 21:50:37;;;;;;;20.75;6.55;;;;;;;;;;6214460;28;20503;-82
2021/11/07 21:53:42;;;;;;;16.42;4.65;;;;;;;;;;6207063;28;20534;-82
2021/11/07 21:56:44;;;;;;;12.95;4.15;;;;;;;;;;6208830;28;20070;-79
2021/11/07 21:59:50;;;;;;;13.63;3.83;;;;;;;;;;6217435;28;20418;-81